Time;durP1;ratioP1;P1;durP2;ratioP2;P2;SDS_P1;SDS_P2;PMS_P1;PMS_P2;Temp;Humidity;BMP_temperature;BMP_pressure;BME280_temperature;BME280_humidity;BME280_pressure;Samples;Min_cycle;Max_cycle;Signal;HPM_P1;HPM_P2
2022/11/21 00:01:49;;;;;;;152.27;84.10;;;;;;;15.44;70.09;98901.25;5054917;28;20052;-61
2022/11/21 00:04:38;;;;;;;151.38;81.63;;;;;;;15.42;69.74;98909.59;5054708;28;20056;-62
2022/11/21 00:07:20;;;;;;;148.45;82.95;;;;;;;15.25;69.12;98903.31;5057665;28;20063;-61
2022/11/21 00:10:10;;;;;;;142.77;81.65;;;;;;;15.20;70.04;98906.72;5053227;28;20049;-61
2022/11/21 00:12:59;;;;;;;143.75;82.13;;;;;;;15.16;69.93;98908.25;5055362;28;20060;-61
2022/11/21 00:15:49;;;;;;;140.23;78.47;;;;;;;15.13;70.60;98914.13;5054523;28;20057;-61
2022/11/21 00:18:48;;;;;;;154.82;81.88;;;;;;;15.12;70.34;98925.22;5053719;28;20111;-61
2022/11/21 00:21:23;;;;;;;143.50;78.53;;;;;;;14.96;71.10;98930.28;5049889;28;20063;-61
2022/11/21 00:24:12;;;;;;;150.45;81.57;;;;;;;15.01;70.98;98930.38;5055360;28;20419;-62
2022/11/21 00:26:54;;;;;;;147.05;81.43;;;;;;;15.01;70.62;98930.38;5056282;28;20826;-63
2022/11/21 00:29:49;;;;;;;146.73;81.07;;;;;;;14.98;71.36;98936.28;5055537;28;20111;-61
2022/11/21 00:32:24;;;;;;;139.15;78.90;;;;;;;14.87;71.74;98931.69;5051625;28;20484;-61
2022/11/21 00:35:13;;;;;;;143.90;80.70;;;;;;;14.82;71.82;98936.97;5055349;28;20131;-59
2022/11/21 00:37:55;;;;;;;150.85;82.70;;;;;;;14.59;72.04;98929.72;5055491;28;20143;-62
2022/11/21 00:40:44;;;;;;;149.30;80.10;;;;;;;14.71;72.56;98929.69;5045370;28;20107;-62
2022/11/21 00:43:27;;;;;;;156.82;82.35;;;;;;;14.70;71.95;98936.19;5051931;28;20059;-62
2022/11/21 00:46:16;;;;;;;147.63;81.80;;;;;;;14.76;72.04;98937.94;5053094;28;20076;-61
2022/11/21 00:48:58;;;;;;;150.48;82.00;;;;;;;14.92;71.00;98939.91;5055447;28;20072;-62
2022/11/21 00:51:54;;;;;;;147.13;81.88;;;;;;;14.84;71.59;98942.97;5045444;28;20048;-61
2022/11/21 00:54:29;;;;;;;148.98;81.70;;;;;;;14.74;71.33;98948.97;5057351;28;20662;-61
2022/11/21 00:57:19;;;;;;;149.73;81.57;;;;;;;14.78;72.21;98954.72;5025394;28;20749;-61
2022/11/21 01:00:08;;;;;;;138.27;78.70;;;;;;;14.79;71.41;98957.19;5037957;28;20106;-61
2022/11/21 01:02:50;;;;;;;154.15;83.13;;;;;;;14.84;71.61;98957.28;5044755;28;20495;-61
2022/11/21 01:05:39;;;;;;;145.50;80.32;;;;;;;14.79;71.63;98956.34;5040682;28;20045;-61
2022/11/21 01:08:21;;;;;;;147.57;80.57;;;;;;;14.62;71.73;98954.38;5045552;28;20535;-61
2022/11/21 01:11:12;;;;;;;145.10;78.57;;;;;;;14.62;72.77;98961.66;5035147;28;20048;-60
2022/11/21 01:13:54;;;;;;;135.55;78.82;;;;;;;14.59;72.53;98952.13;5045170;28;20076;-62
2022/11/21 01:16:43;;;;;;;144.85;82.75;;;;;;;14.67;72.49;98954.50;5035356;28;20330;-61
2022/11/21 01:19:26;;;;;;;160.20;83.05;;;;;;;14.53;73.39;98953.03;5037281;28;20055;-62
2022/11/21 01:22:15;;;;;;;150.18;82.85;;;;;;;14.42;73.03;98951.16;5045299;28;20110;-61
2022/11/21 01:24:57;;;;;;;151.75;80.97;;;;;;;14.48;74.03;98952.91;5045658;28;20045;-61
2022/11/21 01:27:46;;;;;;;155.25;84.38;;;;;;;14.44;73.39;98957.13;5011424;28;20045;-62
2022/11/21 01:30:41;;;;;;;150.55;80.47;;;;;;;14.44;73.20;98954.44;5042590;28;20068;-61
2022/11/21 01:33:16;;;;;;;150.68;83.30;;;;;;;14.49;73.65;98957.28;5033846;28;20053;-62
2022/11/21 01:36:27;;;;;;;157.60;82.22;;;;;;;14.45;74.11;98964.19;5026185;28;20072;-61
2022/11/21 01:39:11;;;;;;;;;;;;;;;14.52;73.47;98961.38;5025299;28;20041;-62
2022/11/21 01:42:00;;;;;;;150.00;78.85;;;;;;;14.53;74.12;98971.13;5025927;28;19954;-62
2022/11/21 01:45:31;;;;;;;162.63;85.93;;;;;;;14.61;73.47;98974.31;5005464;28;20049;-61
2022/11/21 01:48:26;;;;;;;149.68;83.22;;;;;;;14.67;72.91;98981.50;5007923;28;20052;-61
2022/11/21 01:51:52;;;;;;;149.80;83.18;;;;;;;14.58;73.54;98987.47;5007224;28;20056;-60
2022/11/21 01:54:46;;;;;;;160.88;84.97;;;;;;;14.53;74.26;98998.13;5029110;28;20512;-61
2022/11/21 01:57:47;;;;;;;165.88;83.75;;;;;;;14.56;73.90;99003.06;5005578;28;20141;-61
2022/11/21 02:00:39;;;;;;;159.77;85.95;;;;;;;14.60;73.29;99007.81;4988164;28;20351;-61
2022/11/21 02:03:33;;;;;;;161.98;84.72;;;;;;;14.57;73.56;99005.56;5021091;28;20420;-62
2022/11/21 02:06:24;;;;;;;166.30;84.50;;;;;;;14.83;72.68;99000.78;5025038;28;20081;-61
2022/11/21 02:09:13;;;;;;;157.70;83.75;;;;;;;14.73;73.08;99014.03;5027351;28;20056;-60
2022/11/21 02:12:01;;;;;;;161.27;84.55;;;;;;;14.83;73.02;99007.00;5019716;28;20104;-62
2022/11/21 02:14:50;;;;;;;150.38;81.43;;;;;;;15.21;71.90;99012.97;5029019;28;20049;-61
2022/11/21 02:17:32;;;;;;;165.63;85.95;;;;;;;15.33;72.36;99021.91;5008501;28;20046;-62
2022/11/21 02:20:25;;;;;;;162.88;85.00;;;;;;;15.50;71.73;99021.19;5009839;28;20054;-62
2022/11/21 02:23:14;;;;;;;172.45;90.45;;;;;;;15.68;71.43;99023.69;5022109;28;20136;-61
2022/11/21 02:26:03;;;;;;;165.45;87.22;;;;;;;15.73;71.80;99023.00;5030168;28;20077;-61
2022/11/21 02:28:45;;;;;;;180.18;89.60;;;;;;;15.77;71.24;99027.72;5040978;27;20048;-61
2022/11/21 02:31:34;;;;;;;167.40;87.40;;;;;;;15.83;71.82;99032.16;5031547;28;20473;-62
2022/11/21 02:34:16;;;;;;;166.07;88.82;;;;;;;15.86;72.12;99041.69;5049006;28;20075;-61
2022/11/21 02:37:07;;;;;;;177.35;92.28;;;;;;;15.92;71.71;99039.91;5049228;28;20111;-61
2022/11/21 02:40:07;;;;;;;188.73;94.30;;;;;;;16.01;71.37;99042.00;5049054;28;20044;-62
2022/11/21 02:43:06;;;;;;;176.77;93.28;;;;;;;16.25;70.99;99047.31;5048326;28;20045;-62
2022/11/21 02:45:43;;;;;;;182.82;95.90;;;;;;;16.50;69.44;99056.94;5048271;28;20047;-61
2022/11/21 02:48:33;;;;;;;181.45;93.30;;;;;;;16.50;69.53;99059.66;5047899;28;20440;-61
2022/11/21 02:51:23;;;;;;;179.05;93.00;;;;;;;16.61;69.35;99061.47;5048144;28;20076;-61
2022/11/21 02:54:12;;;;;;;172.73;90.40;;;;;;;16.72;68.89;99066.00;5044165;28;20040;-61
2022/11/21 02:56:55;;;;;;;175.07;92.18;;;;;;;16.85;68.78;99073.00;5028728;28;20049;-62
2022/11/21 02:59:44;;;;;;;165.00;87.10;;;;;;;17.02;68.54;99079.28;5028187;28;20416;-62
2022/11/21 03:02:26;;;;;;;176.63;91.13;;;;;;;17.17;68.37;99077.84;5043169;28;20049;-62
2022/11/21 03:05:24;;;;;;;179.80;90.80;;;;;;;17.36;68.20;99081.94;5048101;28;20056;-63
2022/11/21 03:08:00;;;;;;;187.43;94.45;;;;;;;17.44;67.70;99090.72;5048256;28;20511;-62
2022/11/21 03:10:55;;;;;;;178.35;94.13;;;;;;;17.61;67.15;99094.22;5048190;28;20427;-63
2022/11/21 03:13:44;;;;;;;199.82;101.82;;;;;;;17.86;66.48;99101.09;5030525;28;20496;-62
2022/11/21 03:16:26;;;;;;;208.13;102.00;;;;;;;18.02;66.52;99099.38;5042157;28;20060;-62
2022/11/21 03:19:15;;;;;;;205.95;104.57;;;;;;;18.26;64.52;99094.50;5047420;28;20067;-61
2022/11/21 03:21:57;;;;;;;212.32;104.35;;;;;;;18.57;64.31;99109.22;5048249;28;20098;-63
2022/11/21 03:24:46;;;;;;;189.68;97.28;;;;;;;18.84;61.76;99111.97;5048139;28;20049;-62
2022/11/21 03:27:35;;;;;;;432.60;115.50;;;;;;;18.92;62.98;99105.25;5047540;28;20114;-62
2022/11/21 03:30:32;;;;;;;215.75;91.80;;;;;;;19.42;59.12;99114.03;5062587;28;20135;-63
2022/11/21 03:33:21;;;;;;;182.15;88.78;;;;;;;19.87;58.55;99112.66;5042145;28;21140;-62
2022/11/21 03:36:10;;;;;;;172.02;86.70;;;;;;;20.19;56.71;99109.00;5045191;28;20082;-62
2022/11/21 03:38:54;;;;;;;168.82;86.60;;;;;;;20.60;56.01;99120.03;5046272;28;20128;-61
2022/11/21 03:41:43;;;;;;;172.50;88.45;;;;;;;21.01;55.33;99120.09;5046995;28;20056;-60
2022/11/21 03:44:25;;;;;;;179.88;86.82;;;;;;;21.62;54.77;99122.78;5046689;28;20080;-61
2022/11/21 03:47:14;;;;;;;164.40;84.80;;;;;;;21.90;54.43;99120.53;5032802;28;20164;-61
2022/11/21 03:49:56;;;;;;;167.00;82.68;;;;;;;22.72;49.82;99122.03;5047793;28;20049;-61
2022/11/21 03:52:45;;;;;;;166.82;82.93;;;;;;;23.20;47.96;99125.81;5033326;28;20061;-60
2022/11/21 03:55:40;;;;;;;144.48;76.57;;;;;;;23.60;46.44;99128.44;5047585;28;20049;-60
2022/11/21 03:58:15;;;;;;;154.30;75.40;;;;;;;23.89;45.76;99125.69;5046925;28;20484;-61
2022/11/21 04:01:14;;;;;;;142.90;75.18;;;;;;;24.05;49.04;99123.56;5047231;28;20044;-62
2022/11/21 04:03:50;;;;;;;146.05;75.85;;;;;;;24.27;45.65;99119.44;5047191;28;20044;-61
2022/11/21 04:06:45;;;;;;;141.00;70.10;;;;;;;24.31;45.53;99115.84;5047125;28;20136;-62
2022/11/21 04:09:20;;;;;;;133.35;68.90;;;;;;;24.55;43.76;99136.94;5047146;28;20439;-61
2022/11/21 04:12:09;;;;;;;127.15;68.70;;;;;;;24.77;44.65;99128.13;5045966;28;20114;-62
2022/11/21 04:14:51;;;;;;;131.20;67.25;;;;;;;24.80;44.49;99130.25;5047497;28;20456;-61
2022/11/21 04:17:47;;;;;;;131.30;69.15;;;;;;;24.98;44.14;99123.13;5045973;28;20219;-61
2022/11/21 04:20:22;;;;;;;131.60;68.72;;;;;;;24.88;45.24;99132.34;5046379;28;20044;-60
2022/11/21 04:23:18;;;;;;;129.70;69.38;;;;;;;25.08;42.44;99125.69;5046434;28;20048;-60
2022/11/21 04:25:53;;;;;;;138.65;68.13;;;;;;;25.15;43.27;99131.63;5046924;28;20056;-61
2022/11/21 04:28:50;;;;;;;120.22;66.35;;;;;;;25.30;41.69;99125.09;5047206;28;20045;-62
2022/11/21 04:31:39;;;;;;;131.43;65.38;;;;;;;24.58;42.91;99125.38;5039779;28;20048;-62
2022/11/21 04:34:28;;;;;;;120.90;62.65;;;;;;;24.52;41.20;99123.81;5021551;28;20532;-61
2022/11/21 04:37:17;;;;;;;124.28;59.50;;;;;;;24.79;42.59;99126.69;5042824;28;20049;-61
2022/11/21 04:39:59;;;;;;;114.82;58.30;;;;;;;24.33;42.98;99129.25;5043649;28;20048;-61
2022/11/21 04:42:55;;;;;;;115.35;58.70;;;;;;;24.66;44.12;99130.19;5037245;28;20103;-60
2022/11/21 04:45:31;;;;;;;114.30;59.70;;;;;;;24.66;45.55;99132.13;5029420;28;20056;-62
2022/11/21 04:48:20;;;;;;;124.43;61.90;;;;;;;24.97;44.11;99132.47;5037185;28;20679;-60
2022/11/21 04:51:09;;;;;;;115.00;56.80;;;;;;;24.84;40.98;99134.06;5019840;28;20228;-63
2022/11/21 04:53:51;;;;;;;111.10;58.13;;;;;;;24.94;43.98;99138.56;5018009;28;20049;-64
2022/11/21 04:56:40;;;;;;;110.00;53.90;;;;;;;25.06;42.75;99127.91;5017753;28;20057;-64
2022/11/21 04:59:22;;;;;;;114.40;52.92;;;;;;;25.03;41.16;99125.78;5015928;28;20056;-63
2022/11/21 05:02:11;;;;;;;98.65;52.20;;;;;;;24.93;44.87;99136.91;5005640;28;20045;-62
2022/11/21 05:04:53;;;;;;;81.45;45.47;;;;;;;24.84;41.16;99133.22;5001093;28;20053;-63
2022/11/21 05:07:42;;;;;;;97.88;47.05;;;;;;;24.99;43.20;99125.56;5021318;28;20041;-61
2022/11/21 05:10:24;;;;;;;80.60;45.97;;;;;;;25.00;40.69;99126.38;5014024;28;20064;-63
2022/11/21 05:13:21;;;;;;;81.78;43.42;;;;;;;25.05;39.57;99125.47;5006293;28;20053;-62
2022/11/21 05:16:04;;;;;;;76.78;42.10;;;;;;;24.98;36.91;99121.19;5017675;28;20045;-61
2022/11/21 05:18:53;;;;;;;81.43;40.35;;;;;;;25.17;37.07;99125.84;5011849;28;20104;-60
2022/11/21 05:21:35;;;;;;;67.03;34.60;;;;;;;25.16;36.12;99119.50;5022487;28;20057;-61
2022/11/21 05:24:40;;;;;;;57.83;31.17;;;;;;;25.29;37.38;99122.63;5009866;28;20050;-61
2022/11/21 05:27:36;;;;;;;52.75;30.23;;;;;;;25.76;38.83;99126.19;5024960;28;20454;-61
2022/11/21 05:30:18;;;;;;;45.08;28.75;;;;;;;26.10;37.93;99125.81;5031186;28;20120;-60
2022/11/21 05:33:07;;;;;;;57.35;29.73;;;;;;;25.98;36.76;99117.22;5016748;28;20103;-61
2022/11/21 05:35:49;;;;;;;48.97;29.30;;;;;;;26.01;35.82;99118.56;5021360;28;20049;-62
2022/11/21 05:38:38;;;;;;;65.32;28.58;;;;;;;25.76;35.58;99120.69;5024790;28;20608;-62
2022/11/21 05:41:20;;;;;;;48.63;29.17;;;;;;;25.82;38.14;99124.97;5019130;28;20049;-62
2022/11/21 05:44:09;;;;;;;55.55;28.75;;;;;;;25.91;35.27;99116.78;5011121;28;20476;-65
2022/11/21 05:46:51;;;;;;;58.40;27.85;;;;;;;25.77;35.86;99114.84;5016358;28;20373;-62
2022/11/21 05:49:40;;;;;;;47.33;28.08;;;;;;;26.55;34.95;99114.09;5020369;28;20069;-64
2022/11/21 05:52:22;;;;;;;45.90;23.50;;;;;;;26.51;33.48;99107.59;5012092;28;20058;-65
2022/11/21 05:55:11;;;;;;;48.42;24.42;;;;;;;26.55;35.01;99109.41;5020874;28;20045;-64
2022/11/21 05:57:53;;;;;;;45.40;24.90;;;;;;;26.51;32.75;99097.38;5005566;28;20064;-64
2022/11/21 06:00:42;;;;;;;47.15;25.95;;;;;;;26.32;33.64;99100.28;4931044;28;20568;-62
2022/11/21 06:03:26;;;;;;;50.33;25.92;;;;;;;26.46;33.08;99093.94;4938056;28;20066;-63
2022/11/21 06:06:20;;;;;;;39.05;23.23;;;;;;;26.54;32.93;99085.75;4942588;29;20145;-61
2022/11/21 06:09:05;;;;;;;44.50;26.25;;;;;;;26.69;32.53;99092.88;4977923;28;20066;-63
2022/11/21 06:11:54;;;;;;;57.40;27.38;;;;;;;27.08;36.26;99085.06;4924467;28;20530;-64
2022/11/21 06:14:36;;;;;;;55.53;29.90;;;;;;;26.83;34.08;99089.25;4931394;28;20048;-62
2022/11/21 06:17:25;;;;;;;51.70;29.80;;;;;;;27.00;34.14;99080.28;4933768;28;20062;-63
2022/11/21 06:20:07;;;;;;;53.35;29.80;;;;;;;27.25;35.51;99071.41;5013778;28;20682;-61
2022/11/21 06:22:57;;;;;;;64.53;35.03;;;;;;;27.17;34.09;99077.63;5020055;28;20060;-63
2022/11/21 06:25:39;;;;;;;58.88;33.83;;;;;;;27.04;35.78;99071.09;5022318;28;20152;-65
2022/11/21 06:28:39;;;;;;;61.65;34.22;;;;;;;27.04;34.37;99075.78;5032525;28;20056;-63
2022/11/21 06:31:29;;;;;;;66.15;32.42;;;;;;;27.14;33.80;99064.50;5032583;28;20064;-63
2022/11/21 06:34:18;;;;;;;60.13;35.72;;;;;;;27.12;33.54;99067.56;5033880;28;20052;-64
2022/11/21 06:37:00;;;;;;;79.00;37.00;;;;;;;27.31;34.23;99064.63;5025405;28;20120;-65
2022/11/21 06:39:49;;;;;;;62.92;31.00;;;;;;;27.39;33.40;99049.25;5008088;28;20145;-62
2022/11/21 06:42:32;;;;;;;54.60;28.13;;;;;;;27.27;33.72;99058.13;5026358;28;20686;-61
2022/11/21 06:45:21;;;;;;;49.00;22.80;;;;;;;26.75;31.94;99053.09;5025343;28;20111;-60
2022/11/21 06:48:03;;;;;;;48.50;22.65;;;;;;;27.06;33.42;99049.56;5038668;28;20056;-61
2022/11/21 06:50:52;;;;;;;49.55;24.52;;;;;;;27.33;34.64;99045.03;5039756;28;20065;-61
2022/11/21 06:53:34;;;;;;;61.38;29.08;;;;;;;27.30;32.15;99040.13;5039608;28;20063;-60
2022/11/21 06:56:23;;;;;;;64.50;31.10;;;;;;;27.21;33.95;99039.25;5035654;28;20045;-62
2022/11/21 06:59:05;;;;;;;74.32;31.45;;;;;;;27.15;33.59;99028.38;5037997;28;20057;-61
2022/11/21 07:01:54;;;;;;;66.75;31.67;;;;;;;27.30;34.50;99024.41;5032122;28;20049;-62
2022/11/21 07:04:36;;;;;;;72.68;33.28;;;;;;;27.41;33.25;99024.94;5032008;28;20041;-60
2022/11/21 07:07:25;;;;;;;73.78;30.27;;;;;;;27.27;32.63;99013.22;5029572;28;20053;-61
2022/11/21 07:10:07;;;;;;;66.85;29.40;;;;;;;26.94;33.09;99011.56;5037256;28;20061;-62
2022/11/21 07:16:06;;;;;;;63.25;30.08;;;;;;;27.35;33.69;99004.19;5036556;28;20057;-61
2022/11/21 07:18:56;;;;;;;75.38;32.42;;;;;;;27.09;33.98;98998.50;5033629;28;20049;-60
2022/11/21 07:21:38;;;;;;;73.28;35.10;;;;;;;27.34;33.04;98997.84;5035997;28;20053;-61
2022/11/21 07:24:27;;;;;;;77.97;33.55;;;;;;;26.96;32.68;98991.94;5032747;28;20060;-60
2022/11/21 07:27:09;;;;;;;66.20;29.48;;;;;;;27.05;32.33;98978.25;5035122;28;20053;-62
2022/11/21 07:30:04;;;;;;;65.32;28.83;;;;;;;27.06;32.33;98972.41;5036915;28;20132;-62
2022/11/21 07:33:08;;;;;;;61.80;29.85;;;;;;;27.38;33.20;98976.00;5029898;28;20057;-62
2022/11/21 07:35:44;;;;;;;71.80;31.70;;;;;;;27.13;32.75;98967.28;5035840;28;20724;-59
2022/11/21 07:38:40;;;;;;;78.03;32.63;;;;;;;27.25;32.48;98965.91;5033353;28;20661;-59
2022/11/21 07:41:16;;;;;;;62.50;28.95;;;;;;;27.50;32.68;98958.84;5025378;28;20049;-59
2022/11/21 07:44:05;;;;;;;61.38;30.23;;;;;;;27.43;32.99;98967.56;5035105;28;20053;-59
2022/11/21 07:46:47;;;;;;;68.18;31.88;;;;;;;27.36;33.74;98961.69;5029667;28;20049;-60
2022/11/21 07:49:42;;;;;;;75.20;34.85;;;;;;;27.01;33.00;98957.97;5029999;28;20107;-60
2022/11/21 07:52:17;;;;;;;81.18;35.28;;;;;;;27.07;34.63;98943.72;5021076;28;20073;-60
2022/11/21 07:55:14;;;;;;;76.03;34.17;;;;;;;27.01;34.30;98945.00;5022282;28;20049;-60
2022/11/21 07:57:58;;;;;;;72.13;35.10;;;;;;;27.07;35.96;98943.72;5023916;28;20045;-60
2022/11/21 08:00:53;;;;;;;77.20;34.97;;;;;;;26.88;33.37;98934.91;5024518;28;20496;-59
2022/11/21 08:03:28;;;;;;;70.00;35.38;;;;;;;26.93;33.56;98929.25;5023606;28;20045;-60
2022/11/21 08:06:23;;;;;;;69.63;31.75;;;;;;;27.02;33.75;98929.28;5022193;28;20058;-59
2022/11/21 08:08:58;;;;;;;71.10;31.42;;;;;;;27.18;34.98;98924.19;5022512;28;20060;-59
2022/11/21 08:11:54;;;;;;;71.72;34.00;;;;;;;27.06;33.24;98917.31;5020846;28;20045;-59
2022/11/21 08:14:49;;;;;;;58.25;33.17;;;;;;;27.24;33.96;98912.66;5024514;28;20091;-60
2022/11/21 08:17:27;;;;;;;65.28;34.10;;;;;;;27.07;33.10;98921.69;4985580;28;20049;-60
2022/11/21 08:20:23;;;;;;;73.38;33.47;;;;;;;26.83;33.49;98911.06;5022055;28;20077;-59
2022/11/21 08:22:58;;;;;;;67.15;30.90;;;;;;;26.65;33.38;98909.34;5021658;28;20080;-60
2022/11/21 08:25:47;;;;;;;70.35;32.65;;;;;;;26.54;33.24;98908.78;5024075;28;20041;-60
2022/11/21 08:28:29;;;;;;;63.92;31.20;;;;;;;26.93;33.96;98909.97;5024825;28;20056;-60
2022/11/21 08:31:24;;;;;;;63.85;31.10;;;;;;;26.96;33.37;98912.09;5005952;28;20057;-60
2022/11/21 08:33:59;;;;;;;65.20;32.75;;;;;;;27.07;33.60;98899.66;5008509;28;20052;-60
2022/11/21 08:36:54;;;;;;;62.65;32.05;;;;;;;27.07;34.34;98902.41;5001351;28;20441;-61
2022/11/21 08:39:43;;;;;;;34.58;22.42;;;;;;;26.99;31.69;98896.88;5004937;28;20112;-60
2022/11/21 10:22:32;;;;;;;22.90;9.43;;;;;;;25.88;34.65;98840.53;4775007;27;9232916;-61
2022/11/21 10:25:29;;;;;;;14.25;8.38;;;;;;;25.88;32.11;98834.22;5102710;28;20851;-61
2022/11/21 10:28:28;;;;;;;12.18;7.22;;;;;;;25.77;34.09;98830.88;5103787;28;20047;-59
2022/11/21 10:31:19;;;;;;;13.73;7.85;;;;;;;25.74;35.07;98831.53;5101703;28;20032;-59
2022/11/21 10:34:04;;;;;;;14.30;8.05;;;;;;;25.59;32.35;98836.25;5091492;28;20044;-59
2022/11/21 10:37:37;;;;;;;13.57;6.88;;;;;;;25.78;31.88;98833.34;5075556;28;20683;-59
2022/11/21 10:40:27;;;;;;;15.52;7.63;;;;;;;25.58;34.06;98831.06;5059785;28;20460;-60
2022/11/21 10:46:22;;;;;;;17.58;7.07;;;;;;;25.19;32.58;98826.97;5059080;28;20071;-59
2022/11/21 10:49:20;;;;;;;11.45;6.95;;;;;;;25.34;32.68;98829.41;5060738;28;20051;-61
2022/11/21 10:52:11;;;;;;;13.95;6.93;;;;;;;25.39;35.74;98828.47;5060870;28;20045;-60
2022/11/21 10:55:03;;;;;;;13.73;6.93;;;;;;;25.32;35.30;98831.66;5061678;28;20626;-60
2022/11/21 10:57:58;;;;;;;18.83;6.97;;;;;;;25.30;37.56;98833.06;5061833;28;20136;-58
2022/11/21 11:01:03;;;;;;;13.43;6.28;;;;;;;25.27;34.72;98830.94;5061715;28;20490;-57
2022/11/21 11:03:38;;;;;;;13.00;6.68;;;;;;;25.18;37.84;98837.16;5060053;28;20148;-58
2022/11/21 11:06:47;;;;;;;14.82;6.70;;;;;;;25.15;37.66;98837.75;5058408;28;20052;-58
2022/11/21 11:09:39;;;;;;;13.90;7.28;;;;;;;25.07;35.72;98830.25;5060871;28;20052;-59
2022/11/21 11:15:33;;;;;;;12.20;7.32;;;;;;;25.07;36.21;98841.22;5061354;28;20052;-59
2022/11/21 11:18:29;;;;;;;18.38;8.30;;;;;;;24.90;36.29;98830.06;5060311;28;20131;-59
2022/11/21 11:21:40;;;;;;;19.63;7.93;;;;;;;24.93;37.96;98834.91;5056372;28;20052;-59
2022/11/21 11:24:32;;;;;;;18.17;8.05;;;;;;;24.64;39.64;98830.56;5047611;28;20056;-58
2022/11/21 11:27:27;;;;;;;14.77;7.93;;;;;;;24.62;39.26;98835.53;5027865;28;20143;-58
2022/11/21 11:30:23;;;;;;;19.95;8.18;;;;;;;24.45;40.36;98835.28;5027943;28;20052;-58
2022/11/21 11:33:33;;;;;;;29.95;9.50;;;;;;;24.24;42.14;98841.94;5028199;28;20546;-57
2022/11/21 11:36:43;;;;;;;26.45;9.48;;;;;;;24.05;42.55;98838.44;5037070;28;20128;-57
2022/11/21 11:39:56;;;;;;;22.60;8.50;;;;;;;23.95;43.74;98833.94;5027632;28;20143;-57
2022/11/21 11:50:10;;;;;;;19.42;9.43;;;;;;;23.34;45.30;98835.66;5047138;28;20134;-59
2022/11/21 11:53:13;;;;;;;22.85;8.63;;;;;;;23.20;46.57;98840.25;5044341;28;20099;-59
2022/11/21 11:56:09;;;;;;;26.98;10.02;;;;;;;22.97;47.66;98836.41;5040795;28;20049;-57
2022/11/21 11:59:07;;;;;;;21.30;9.70;;;;;;;22.88;46.81;98838.97;5044789;28;20052;-60
2022/11/21 12:01:59;;;;;;;18.52;9.93;;;;;;;22.80;47.56;98837.69;5045553;28;20801;-60
2022/11/21 12:05:04;;;;;;;27.55;10.95;;;;;;;22.59;47.14;98830.81;5046657;28;20054;-60
2022/11/21 12:08:14;;;;;;;26.23;11.55;;;;;;;22.46;48.13;98827.66;5046699;28;20138;-60
2022/11/21 12:12:07;;;;;;;25.92;10.85;;;;;;;22.35;47.25;98833.50;5045587;28;20416;-59
2022/11/21 12:18:32;;;;;;;25.35;11.98;;;;;;;22.22;48.08;98826.75;5045860;28;20052;-56
2022/11/21 12:21:28;;;;;;;28.73;12.43;;;;;;;22.10;49.79;98830.69;5036018;28;20049;-57
2022/11/21 12:24:04;;;;;;;28.35;11.93;;;;;;;21.87;49.34;98836.91;5011489;28;20278;-54
2022/11/21 12:27:39;;;;;;;24.75;11.57;;;;;;;21.83;49.35;98830.38;5027127;28;20053;-59
2022/11/21 12:30:40;;;;;;;21.85;11.00;;;;;;;21.69;50.36;98831.03;4986010;28;20059;-56
2022/11/21 12:33:35;;;;;;;38.45;11.68;;;;;;;21.63;50.71;98834.06;5003522;28;20049;-58
2022/11/21 12:36:35;;;;;;;33.15;12.65;;;;;;;21.54;50.88;98842.06;5006429;28;20169;-58
2022/11/21 12:39:38;;;;;;;35.92;13.38;;;;;;;21.39;50.60;98836.66;5027317;28;20045;-56
2022/11/21 12:42:50;;;;;;;23.00;11.80;;;;;;;21.34;51.51;98842.16;5045534;28;20433;-56
2022/11/21 12:45:38;;;;;;;34.33;12.25;;;;;;;21.27;52.78;98840.56;4678533;28;10000099;-55
2022/11/21 12:55:35;;;;;;;46.10;12.77;;;;;;;21.03;55.08;98845.84;5003302;28;20050;-55
2022/11/21 12:58:41;;;;;;;40.53;14.20;;;;;;;20.97;54.53;98865.25;5032358;28;20542;-59
2022/11/21 13:01:30;;;;;;;44.63;14.20;;;;;;;20.86;55.45;98864.47;5020751;28;20053;-59
2022/11/21 13:04:48;;;;;;;32.42;13.45;;;;;;;20.79;54.91;98856.59;5021352;28;20053;-57
2022/11/21 13:07:33;;;;;;;34.63;13.65;;;;;;;20.68;56.23;98865.88;5023212;28;20136;-58
2022/11/21 13:10:22;;;;;;;38.00;14.32;;;;;;;20.68;56.78;98869.44;5004862;28;20054;-58
2022/11/21 13:13:40;;;;;;;36.97;14.20;;;;;;;20.68;56.45;98877.59;5010518;28;20481;-59
2022/11/21 13:16:43;;;;;;;49.08;14.90;;;;;;;20.48;56.07;98874.88;5008661;28;20131;-59
2022/11/21 13:19:44;;;;;;;50.00;17.05;;;;;;;20.38;57.29;98886.63;5020386;28;20076;-58
2022/11/21 13:22:42;;;;;;;40.13;15.55;;;;;;;20.39;57.02;98880.09;5039234;28;20207;-56
2022/11/21 13:25:37;;;;;;;61.83;16.25;;;;;;;20.49;57.07;98890.16;5037237;28;20827;-57
2022/11/21 13:28:40;;;;;;;43.30;16.42;;;;;;;20.32;57.02;98885.81;5040803;28;21482;-60
2022/11/21 13:31:30;;;;;;;48.42;17.23;;;;;;;20.28;57.01;98886.63;5040682;28;20140;-59
2022/11/21 13:34:41;;;;;;;42.95;17.23;;;;;;;20.36;59.16;98891.53;5041703;28;20053;-60
2022/11/21 13:38:12;;;;;;;39.60;16.33;;;;;;;20.25;59.10;98892.63;5040191;28;20502;-56
2022/11/21 13:44:37;;;;;;;40.22;17.85;;;;;;;20.14;60.52;98895.34;5035062;28;20041;-62
2022/11/21 13:47:25;;;;;;;48.08;19.45;;;;;;;20.20;58.73;98890.72;5039482;28;20045;-60
2022/11/21 13:50:26;;;;;;;47.38;19.42;;;;;;;20.11;59.74;98895.09;5038719;28;20041;-60
2022/11/21 13:53:23;;;;;;;44.47;18.33;;;;;;;20.02;59.43;98891.25;5039790;28;20502;-60
2022/11/21 13:56:43;;;;;;;51.22;19.95;;;;;;;19.99;60.07;98897.28;5031685;28;20752;-61
2022/11/21 13:59:39;;;;;;;64.63;20.45;;;;;;;19.96;60.90;98898.59;5022392;28;20053;-62
2022/11/21 14:02:46;;;;;;;63.75;21.27;;;;;;;19.98;61.21;98899.16;5031448;28;20093;-60
2022/11/21 14:05:49;;;;;;;49.53;20.98;;;;;;;19.90;61.57;98895.06;5041827;28;20060;-60
2022/11/21 14:08:39;;;;;;;65.82;21.60;;;;;;;19.80;62.14;98899.69;5022930;28;20551;-59
2022/11/21 14:11:43;;;;;;;56.10;21.20;;;;;;;19.69;62.84;98902.34;5055295;28;20056;-59
2022/11/21 14:14:39;;;;;;;47.25;18.73;;;;;;;19.71;62.59;98902.91;5041815;28;20053;-59
2022/11/21 14:17:40;;;;;;;50.90;21.48;;;;;;;19.72;63.44;98910.03;5040654;28;20049;-60
2022/11/21 14:21:00;;;;;;;39.90;20.50;;;;;;;19.79;63.02;98906.22;5036762;28;20155;-61
2022/11/21 14:23:56;;;;;;;61.08;23.92;;;;;;;19.67;62.43;98914.59;5041389;28;20056;-61
2022/11/21 14:26:45;;;;;;;66.78;24.35;;;;;;;19.65;62.56;98909.44;5041118;28;20119;-59
2022/11/21 14:29:40;;;;;;;75.18;25.70;;;;;;;19.66;62.06;98912.97;5041467;28;20179;-59
2022/11/21 14:32:37;;;;;;;63.97;24.33;;;;;;;19.58;62.75;98914.31;5040918;28;20115;-60
2022/11/21 14:35:23;;;;;;;69.15;26.38;;;;;;;19.62;62.46;98909.94;5041592;28;20041;-60
2022/11/21 14:38:12;;;;;;;63.25;25.58;;;;;;;19.58;63.15;98908.84;5039205;28;20135;-60
2022/11/21 14:41:26;;;;;;;80.85;27.63;;;;;;;19.62;63.41;98912.66;5044592;28;20052;-61
2022/11/21 14:44:16;;;;;;;67.47;28.23;;;;;;;19.64;62.56;98920.56;5030333;28;20045;-60
2022/11/21 14:47:14;;;;;;;78.20;28.38;;;;;;;19.52;62.23;98924.34;5044931;28;20037;-61
2022/11/21 14:50:07;;;;;;;76.85;31.20;;;;;;;19.35;63.19;98916.41;5044376;28;20128;-61
2022/11/21 14:53:05;;;;;;;62.33;29.90;;;;;;;19.38;63.53;98916.97;5044569;28;20139;-60
2022/11/21 14:55:41;;;;;;;75.45;28.33;;;;;;;19.30;63.86;98924.56;5044599;28;20060;-60
2022/11/21 14:58:36;;;;;;;71.05;30.33;;;;;;;19.35;63.91;98921.84;5046826;28;20064;-61
2022/11/21 15:01:33;;;;;;;67.70;31.42;;;;;;;19.41;63.47;98927.31;5045675;28;20048;-60
2022/11/21 15:04:37;;;;;;;81.13;30.65;;;;;;;19.39;63.50;98924.03;5047941;28;20060;-61
2022/11/21 15:07:22;;;;;;;88.15;35.25;;;;;;;19.35;63.23;98921.03;5045705;28;20069;-60
2022/11/21 15:10:18;;;;;;;69.55;33.47;;;;;;;19.34;63.60;98927.56;5046297;28;20061;-59
2022/11/21 15:13:19;;;;;;;74.97;32.72;;;;;;;19.23;64.00;98926.72;5052040;28;20114;-60
2022/11/21 15:16:28;;;;;;;84.05;34.20;;;;;;;19.17;64.01;98933.22;5043252;28;20049;-61